createdAt,value
2024-03-09T00:03:57.750Z,0.75
2024-03-09T00:12:28.321Z,0.27
2024-03-09T00:14:55.900Z,0.06
2024-03-09T00:25:02.628Z,-0.35
2024-03-09T00:27:30.056Z,0.52
2024-03-09T00:29:57.657Z,0.80
2024-03-09T00:32:26.808Z,0.71
2024-03-09T00:34:55.182Z,0.53
2024-03-09T00:37:22.864Z,0.28
2024-03-09T00:39:50.550Z,0.03
2024-03-09T00:42:21.007Z,-0.19
2024-03-09T00:44:48.394Z,-0.39
2024-03-09T00:47:15.955Z,-0.54
2024-03-09T00:57:24.853Z,0.70
2024-03-09T00:59:54.245Z,0.54
2024-03-09T01:02:22.098Z,0.26
2024-03-09T01:04:52.089Z,0.02
2024-03-09T01:07:21.724Z,-0.13
2024-03-09T01:09:49.688Z,-0.28
2024-03-09T01:12:19.091Z,-0.44
2024-03-09T01:14:49.721Z,-0.57
2024-03-09T01:17:22.712Z,0.06
2024-03-09T01:19:54.195Z,0.73
2024-03-09T01:22:22.448Z,0.84
2024-03-09T01:24:54.033Z,0.57
2024-03-09T01:27:21.560Z,0.31
2024-03-09T01:29:49.318Z,0.08
2024-03-09T01:39:57.832Z,-0.27
2024-03-09T01:50:12.015Z,0.49
2024-03-09T01:59:23.212Z,-0.34
2024-03-09T02:01:51.509Z,-0.50
2024-03-09T02:04:19.636Z,-0.70
2024-03-09T02:14:23.523Z,0.43
2024-03-09T02:16:51.690Z,0.15
2024-03-09T02:19:20.001Z,-0.04
2024-03-09T02:21:47.616Z,-0.26
2024-03-09T02:24:20.909Z,-0.44
2024-03-09T02:26:49.128Z,-0.63
2024-03-09T02:36:53.654Z,0.36
2024-03-09T02:39:21.737Z,0.57
2024-03-09T02:41:49.175Z,0.29
2024-03-09T02:44:16.993Z,0.03
2024-03-09T02:46:45.876Z,-0.28
2024-03-09T02:49:13.388Z,-0.46
2024-03-09T02:59:21.056Z,-1.09
2024-03-09T03:01:48.672Z,-0.31
2024-03-09T03:11:53.526Z,-0.32
2024-03-09T03:16:50.254Z,-0.71
2024-03-09T03:19:17.992Z,-0.89
2024-03-09T03:29:21.773Z,0.21
2024-03-09T03:31:49.504Z,-0.01
2024-03-09T03:34:17.476Z,-0.28
2024-03-09T03:36:46.800Z,-0.53
2024-03-09T03:39:14.823Z,-0.76
2024-03-09T03:49:21.679Z,-1.21
2024-03-09T03:51:49.558Z,-0.41
2024-03-09T03:54:17.302Z,0.10
2024-03-09T03:56:44.703Z,0.14
2024-03-09T03:59:12.495Z,-0.08
2024-03-09T04:01:40.892Z,-0.30
2024-03-09T04:11:50.612Z,-1.05
2024-03-09T04:14:18.639Z,-1.23
2024-03-09T04:16:46.458Z,-1.42
2024-03-09T04:19:15.217Z,-0.87
2024-03-09T04:21:42.785Z,-0.19
2024-03-09T04:24:11.269Z,-0.06
2024-03-09T04:26:38.748Z,-0.17
2024-03-09T04:29:06.221Z,-0.38
2024-03-09T04:31:33.889Z,-0.59
2024-03-09T04:34:03.469Z,-0.76
2024-03-09T04:36:30.904Z,-0.94
2024-03-09T04:39:02.667Z,-1.13
2024-03-09T04:41:30.327Z,-1.32
2024-03-09T04:43:57.857Z,-1.52
2024-03-09T04:46:25.437Z,-1.05
2024-03-09T04:48:53.198Z,-0.12
2024-03-09T04:51:20.650Z,0.24
2024-03-09T04:59:53.168Z,-0.08
2024-03-09T05:02:20.629Z,-0.27
2024-03-09T05:04:48.209Z,-0.39
2024-03-09T05:07:15.768Z,-0.51
2024-03-09T05:09:43.195Z,-0.61
2024-03-09T05:12:10.665Z,-0.64
2024-03-09T05:14:38.230Z,-0.67
2024-03-09T05:17:05.696Z,-0.00
2024-03-09T05:27:14.133Z,1.31
2024-03-09T05:37:26.080Z,1.01
2024-03-09T05:39:53.555Z,0.90
2024-03-09T05:50:02.263Z,0.94
2024-03-09T05:52:29.899Z,1.76
2024-03-09T05:54:57.466Z,2.42
2024-03-09T05:57:25.095Z,2.51
2024-03-09T05:59:53.678Z,2.35
2024-03-09T06:02:21.174Z,2.14
2024-03-09T06:04:48.813Z,1.85
2024-03-09T06:14:56.710Z,1.43
2024-03-09T06:17:24.225Z,1.44
2024-03-09T06:19:52.440Z,1.63
2024-03-09T06:22:20.039Z,2.53
2024-03-09T06:24:48.420Z,3.06
2024-03-09T06:34:46.240Z,2.63
2024-03-09T06:37:13.712Z,2.72
2024-03-09T06:39:41.094Z,2.74
2024-03-09T06:42:10.492Z,2.78
2024-03-09T06:44:40.644Z,2.85
2024-03-09T06:47:08.226Z,2.71
2024-03-09T06:49:38.459Z,2.58
2024-03-09T06:52:06.346Z,2.58
2024-03-09T06:54:33.925Z,2.69
2024-03-09T06:57:01.384Z,2.89
2024-03-09T06:59:28.785Z,3.13
2024-03-09T07:02:00.985Z,3.12
2024-03-09T07:04:28.977Z,3.24
2024-03-09T07:06:58.336Z,3.43
2024-03-09T07:09:26.233Z,3.47
2024-03-09T07:11:53.578Z,3.47
2024-03-09T07:14:22.709Z,3.70
2024-03-09T07:16:52.754Z,3.78
2024-03-09T07:19:21.848Z,4.03
2024-03-09T07:21:49.216Z,4.23
2024-03-09T07:24:16.563Z,4.48
2024-03-09T07:26:43.851Z,4.43
2024-03-09T07:29:12.407Z,4.61
2024-03-09T07:31:39.872Z,4.89
2024-03-09T07:34:07.319Z,5.23
2024-03-09T07:36:34.628Z,5.23
2024-03-09T07:39:02.093Z,5.26
2024-03-09T07:41:29.436Z,5.53
2024-03-09T07:43:56.723Z,6.02
2024-03-09T07:46:25.523Z,6.26
2024-03-09T07:48:52.911Z,6.08
2024-03-09T07:51:21.441Z,6.16
2024-03-09T07:53:48.952Z,6.56
2024-03-09T07:56:17.920Z,6.71
2024-03-09T07:58:46.269Z,6.83
2024-03-09T08:01:13.692Z,6.77
2024-03-09T08:03:41.753Z,7.02
2024-03-09T08:06:11.825Z,6.99
2024-03-09T08:08:39.223Z,7.06
2024-03-09T08:11:06.551Z,7.19
2024-03-09T08:13:36.883Z,7.50
2024-03-09T08:16:04.500Z,7.45
2024-03-09T08:18:33.083Z,7.41
2024-03-09T08:21:01.926Z,7.41
2024-03-09T08:23:29.384Z,7.48
2024-03-09T08:25:56.944Z,7.63
2024-03-09T08:28:24.443Z,7.66
2024-03-09T08:30:54.238Z,7.52
2024-03-09T08:33:23.344Z,7.46
2024-03-09T08:35:50.727Z,7.79
2024-03-09T08:38:18.050Z,7.53
2024-03-09T08:40:45.426Z,8.02
2024-03-09T08:43:12.821Z,7.92
2024-03-09T08:45:44.040Z,7.79
2024-03-09T08:48:13.541Z,8.32
2024-03-09T08:50:41.088Z,8.16
2024-03-09T08:53:08.844Z,8.24
2024-03-09T08:55:37.281Z,8.78
2024-03-09T08:58:06.398Z,9.08
2024-03-09T09:00:35.550Z,9.50
2024-03-09T09:03:06.747Z,9.21
2024-03-09T09:05:35.632Z,9.38
2024-03-09T09:08:03.373Z,8.87
2024-03-09T09:10:30.914Z,9.00
2024-03-09T09:12:58.294Z,9.56
2024-03-09T09:15:26.369Z,9.93
2024-03-09T09:17:56.764Z,10.16
2024-03-09T09:20:25.849Z,9.85
2024-03-09T09:22:55.689Z,10.63
2024-03-09T09:25:29.941Z,10.56
2024-03-09T09:28:01.133Z,10.80
2024-03-09T09:30:28.748Z,10.58
2024-03-09T09:32:58.618Z,10.69
2024-03-09T09:35:26.353Z,11.12
2024-03-09T09:37:54.346Z,11.37
2024-03-09T09:40:22.290Z,10.30
2024-03-09T09:42:49.926Z,10.70
2024-03-09T09:45:22.516Z,10.81
2024-03-09T09:47:50.024Z,11.37
2024-03-09T09:50:20.493Z,11.36
2024-03-09T09:52:52.125Z,11.50
2024-03-09T09:55:22.706Z,11.51
2024-03-09T09:57:53.230Z,10.63
2024-03-09T10:00:25.213Z,10.56
2024-03-09T10:02:59.054Z,11.50
2024-03-09T10:05:29.636Z,11.53
2024-03-09T10:08:01.085Z,11.75
2024-03-09T10:10:33.004Z,11.65
2024-03-09T10:13:14.775Z,11.69
2024-03-09T10:15:50.371Z,11.84
2024-03-09T10:18:18.296Z,11.57
2024-03-09T10:20:45.776Z,12.29
2024-03-09T10:23:16.884Z,12.37
2024-03-09T10:25:44.428Z,10.95
2024-03-09T10:28:12.352Z,11.53
2024-03-09T10:30:40.305Z,12.40
2024-03-09T10:33:11.868Z,12.43
2024-03-09T10:35:41.857Z,12.80
2024-03-09T10:38:10.312Z,12.81
2024-03-09T10:40:37.845Z,13.13
2024-03-09T10:43:05.304Z,13.11
2024-03-09T10:45:34.998Z,12.77
2024-03-09T10:48:06.651Z,12.74
2024-03-09T10:50:41.497Z,13.37
2024-03-09T10:53:09.451Z,13.12
2024-03-09T10:56:19.414Z,12.05
2024-03-09T10:58:47.060Z,11.74
2024-03-09T11:01:18.465Z,11.94
2024-03-09T11:03:52.693Z,11.96
2024-03-09T11:06:21.024Z,12.63
2024-03-09T11:08:58.190Z,13.16
2024-03-09T11:11:26.834Z,13.60
2024-03-09T11:13:57.220Z,13.67
2024-03-09T11:16:28.317Z,13.45
2024-03-09T11:18:58.882Z,13.54
2024-03-09T11:21:28.352Z,13.06
2024-03-09T11:24:00.835Z,13.11
2024-03-09T11:26:28.730Z,13.59
2024-03-09T11:28:59.420Z,14.19
2024-03-09T11:31:29.889Z,13.89
2024-03-09T11:34:07.270Z,13.13
2024-03-09T11:36:43.378Z,13.24
2024-03-09T11:39:11.697Z,13.47
2024-03-09T11:41:47.760Z,13.61
2024-03-09T11:44:19.695Z,13.43
2024-03-09T11:46:48.342Z,13.42
2024-03-09T11:49:16.611Z,13.35
2024-03-09T11:51:44.385Z,13.26
2024-03-09T11:54:12.786Z,13.12
2024-03-09T11:56:42.400Z,12.73
2024-03-09T11:59:12.203Z,12.04
2024-03-09T12:01:43.334Z,12.09
2024-03-09T12:04:11.552Z,12.03
2024-03-09T12:06:43.812Z,11.87
2024-03-09T12:09:14.712Z,11.94
2024-03-09T12:11:47.631Z,12.22
2024-03-09T12:14:16.274Z,12.48
2024-03-09T12:16:43.972Z,12.63
2024-03-09T12:19:13.235Z,12.58
2024-03-09T12:21:40.662Z,12.29
2024-03-09T12:24:08.432Z,11.98
2024-03-09T12:26:37.096Z,11.86
2024-03-09T12:29:05.896Z,11.52
2024-03-09T12:31:34.986Z,11.62
2024-03-09T12:34:06.087Z,11.81
2024-03-09T12:36:34.988Z,11.54
2024-03-09T12:39:12.581Z,11.64
2024-03-09T12:41:40.137Z,11.91
2024-03-09T12:44:07.941Z,11.85
2024-03-09T12:46:35.832Z,11.27
2024-03-09T12:49:13.525Z,11.23
2024-03-09T12:51:41.876Z,11.36
2024-03-09T12:54:10.689Z,11.74
2024-03-09T12:56:39.103Z,11.93
2024-03-09T12:59:10.446Z,11.83
2024-03-09T13:01:38.149Z,11.95
2024-03-09T13:04:09.613Z,12.04
2024-03-09T13:06:38.351Z,12.19
2024-03-09T13:09:05.951Z,12.18
2024-03-09T13:11:34.938Z,11.91
2024-03-09T13:14:05.846Z,11.62
2024-03-09T13:16:36.293Z,11.51
2024-03-09T13:19:08.855Z,11.67
2024-03-09T13:21:39.222Z,11.71
2024-03-09T13:24:15.670Z,11.58
2024-03-09T13:26:45.703Z,11.31
2024-03-09T13:29:15.206Z,11.24
2024-03-09T13:31:46.329Z,11.44
2024-03-09T13:34:18.758Z,11.37
2024-03-09T13:36:48.117Z,11.22
2024-03-09T13:39:18.635Z,11.19
2024-03-09T13:41:50.651Z,11.48
2024-03-09T13:44:26.388Z,11.67
2024-03-09T13:46:56.641Z,11.72
2024-03-09T13:49:26.658Z,11.76
2024-03-09T13:52:01.001Z,11.38
2024-03-09T13:54:31.003Z,11.38
2024-03-09T13:57:00.065Z,10.88
2024-03-09T13:59:30.492Z,10.78
2024-03-09T14:02:00.706Z,11.11
2024-03-09T14:04:32.677Z,11.27
2024-03-09T14:07:08.538Z,11.36
2024-03-09T14:09:49.736Z,11.26
2024-03-09T14:19:56.852Z,10.66
2024-03-09T14:22:28.561Z,10.46
2024-03-09T14:24:58.413Z,10.33
2024-03-09T14:27:26.716Z,10.21
2024-03-09T14:29:55.696Z,10.29
2024-03-09T14:32:24.416Z,10.18
2024-03-09T14:34:52.269Z,10.24
2024-03-09T14:37:19.923Z,10.26
2024-03-09T14:39:48.233Z,10.18
2024-03-09T14:42:19.525Z,10.00
2024-03-09T14:44:47.213Z,9.81
2024-03-09T14:47:15.644Z,9.62
2024-03-09T14:49:43.662Z,9.70
2024-03-09T14:52:14.447Z,9.81
2024-03-09T14:54:43.093Z,9.70
2024-03-09T15:04:47.664Z,9.62
2024-03-09T15:07:16.943Z,9.54
2024-03-09T15:09:45.248Z,9.47
2024-03-09T15:12:13.060Z,9.34
2024-03-09T15:14:40.647Z,9.42
2024-03-09T15:24:48.395Z,9.27
2024-03-09T15:27:16.699Z,9.18
2024-03-09T15:29:44.126Z,9.05
2024-03-09T15:32:12.438Z,8.90
2024-03-09T15:34:40.116Z,8.73
2024-03-09T15:37:07.736Z,8.64
2024-03-09T15:39:35.305Z,8.53
2024-03-09T15:42:02.884Z,8.37
2024-03-09T15:44:30.536Z,8.34
2024-03-09T15:46:58.192Z,8.20
2024-03-09T15:49:25.734Z,8.04
2024-03-09T15:51:55.433Z,7.97
2024-03-09T15:54:26.178Z,7.81
2024-03-09T15:56:53.952Z,7.67
2024-03-09T15:59:21.881Z,7.58
2024-03-09T16:01:49.433Z,7.47
2024-03-09T16:04:17.416Z,7.32
2024-03-09T16:06:45.602Z,7.16
2024-03-09T16:09:13.711Z,7.07
2024-03-09T16:11:42.892Z,6.97
2024-03-09T16:14:14.058Z,6.81
2024-03-09T16:16:42.509Z,6.65
2024-03-09T16:19:10.193Z,6.48
2024-03-09T16:21:39.571Z,6.37
2024-03-09T16:24:09.136Z,6.26
2024-03-09T16:26:37.077Z,6.12
2024-03-09T16:29:04.762Z,5.98
2024-03-09T16:31:37.343Z,5.92
2024-03-09T16:34:08.290Z,5.85
2024-03-09T16:36:36.444Z,5.75
2024-03-09T16:39:09.717Z,5.65
2024-03-09T16:41:39.743Z,5.55
2024-03-09T16:44:07.446Z,5.44
2024-03-09T16:46:35.126Z,5.33
2024-03-09T16:49:06.775Z,5.21
2024-03-09T16:51:34.867Z,5.07
2024-03-09T16:54:02.424Z,4.90
2024-03-09T16:56:30.346Z,4.78
2024-03-09T16:59:00.289Z,4.65
2024-03-09T17:01:31.184Z,4.53
2024-03-09T17:04:01.665Z,4.42
2024-03-09T17:06:31.058Z,4.32
2024-03-09T17:09:00.980Z,4.23
2024-03-09T17:11:29.231Z,4.10
2024-03-09T17:13:59.296Z,4.06
2024-03-09T17:16:26.961Z,4.02
2024-03-09T17:18:56.734Z,4.06
2024-03-09T17:21:25.890Z,4.05
2024-03-09T17:23:55.894Z,3.99
2024-03-09T17:26:23.598Z,3.91
2024-03-09T17:28:54.356Z,3.81
2024-03-09T17:31:22.562Z,3.72
2024-03-09T17:33:50.699Z,3.60
2024-03-09T17:36:19.207Z,3.54
2024-03-09T17:38:49.153Z,3.56
2024-03-09T17:41:19.483Z,3.52
2024-03-09T17:43:48.711Z,3.46
2024-03-09T17:46:17.759Z,3.39
2024-03-09T17:48:45.486Z,3.34
2024-03-09T17:51:17.967Z,3.33
2024-03-09T17:53:46.151Z,3.29
2024-03-09T17:56:16.899Z,3.24
2024-03-09T17:58:48.678Z,3.12
2024-03-09T18:01:17.429Z,3.03
2024-03-09T18:03:45.218Z,2.99
2024-03-09T18:06:13.777Z,2.98
2024-03-09T18:08:41.517Z,2.95
2024-03-09T18:11:08.995Z,2.91
2024-03-09T18:13:38.056Z,2.84
2024-03-09T18:16:06.855Z,2.79
2024-03-09T18:18:35.961Z,2.80
2024-03-09T18:21:06.407Z,2.83
2024-03-09T18:23:33.847Z,2.88
2024-03-09T18:26:02.646Z,2.81
2024-03-09T18:28:30.601Z,2.70
2024-03-09T18:30:58.776Z,2.59
2024-03-09T18:33:28.473Z,2.44
2024-03-09T18:35:56.143Z,2.24
2024-03-09T18:38:24.057Z,2.09
2024-03-09T18:43:21.397Z,1.89
2024-03-09T18:45:48.959Z,1.81
2024-03-09T18:48:17.032Z,1.70
2024-03-09T18:50:44.685Z,1.54
2024-03-09T18:53:12.449Z,1.37
2024-03-09T18:55:40.389Z,1.21
2024-03-09T18:58:10.094Z,1.05
2024-03-09T19:00:39.069Z,0.83
2024-03-09T19:03:08.326Z,0.78
2024-03-09T19:05:36.017Z,0.83
2024-03-09T19:08:05.610Z,0.75
2024-03-09T19:10:34.163Z,0.61
2024-03-09T19:13:06.524Z,0.67
2024-03-09T19:15:36.538Z,0.63
2024-03-09T19:18:05.170Z,0.62
2024-03-09T19:20:36.423Z,0.64
2024-03-09T19:23:05.006Z,0.59
2024-03-09T19:25:32.741Z,0.53
2024-03-09T19:28:00.682Z,0.44
2024-03-09T19:30:30.817Z,0.35
2024-03-09T19:32:58.981Z,0.26
2024-03-09T19:35:29.353Z,0.18
2024-03-09T19:37:59.714Z,0.10
2024-03-09T19:40:28.291Z,0.03
2024-03-09T19:50:33.445Z,-0.11
2024-03-09T19:53:01.387Z,-0.27
2024-03-09T19:55:31.050Z,-0.35
2024-03-09T19:58:00.029Z,-0.39
2024-03-09T20:00:33.299Z,-0.43
2024-03-09T20:03:05.476Z,-0.48
2024-03-09T20:05:34.579Z,-0.59
2024-03-09T20:08:02.598Z,-0.01
2024-03-09T20:10:32.008Z,1.00
2024-03-09T20:13:01.617Z,1.36
2024-03-09T20:15:30.166Z,1.32
2024-03-09T20:17:59.548Z,1.11
2024-03-09T20:20:28.547Z,0.88
2024-03-09T20:22:56.829Z,0.68
2024-03-09T20:25:24.815Z,0.45
2024-03-09T20:27:52.850Z,0.27
2024-03-09T20:30:21.602Z,0.09
2024-03-09T20:32:49.883Z,-0.03
2024-03-09T20:35:19.318Z,-0.18
2024-03-09T20:37:48.577Z,-0.30
2024-03-09T20:40:17.819Z,-0.40
2024-03-09T20:42:46.974Z,-0.49
2024-03-09T20:45:16.860Z,-0.57
2024-03-09T20:47:47.862Z,-0.67
2024-03-09T20:50:17.513Z,-0.71
2024-03-09T20:52:53.910Z,-0.78
2024-03-09T20:55:22.129Z,-0.92
2024-03-09T20:57:49.809Z,-1.05
2024-03-09T21:00:24.256Z,-1.22
2024-03-09T21:10:36.010Z,0.94
2024-03-09T21:13:04.061Z,0.78
2024-03-09T21:15:31.871Z,0.60
2024-03-09T21:18:00.054Z,0.40
2024-03-09T21:20:27.915Z,0.20
2024-03-09T21:22:55.569Z,0.03
2024-03-09T21:25:23.184Z,-0.11
2024-03-09T21:27:51.342Z,-0.26
2024-03-09T21:30:21.533Z,-0.39
2024-03-09T21:40:27.106Z,-0.82
2024-03-09T21:42:55.328Z,-0.93
2024-03-09T21:45:22.821Z,-1.00
2024-03-09T21:47:51.078Z,-1.10
2024-03-09T21:50:24.141Z,-1.24
2024-03-09T21:52:54.333Z,-0.70
2024-03-09T21:55:24.359Z,0.32
2024-03-09T21:57:52.666Z,0.59
2024-03-09T22:00:24.445Z,0.48
2024-03-09T22:02:54.942Z,0.26
2024-03-09T22:13:02.390Z,-0.40
2024-03-09T22:15:30.881Z,-0.53
2024-03-09T22:17:59.032Z,-0.66
2024-03-09T22:20:26.945Z,-0.76
2024-03-09T22:30:35.802Z,-0.95
2024-03-09T22:33:03.304Z,-1.04
2024-03-09T22:35:30.885Z,-1.13
2024-03-09T22:37:59.337Z,-1.19
2024-03-09T22:40:26.865Z,-1.28
2024-03-09T22:42:55.327Z,-1.35
2024-03-09T22:45:25.747Z,-1.44
2024-03-09T22:55:34.022Z,0.50
2024-03-09T22:58:01.497Z,0.24
2024-03-09T23:08:09.865Z,-0.56
2024-03-09T23:10:37.591Z,-0.72
2024-03-09T23:13:06.411Z,-0.88
2024-03-09T23:15:35.944Z,-0.99
2024-03-09T23:18:05.818Z,-1.14
2024-03-09T23:22:48.193Z,-1.63
2024-03-09T23:25:16.620Z,-1.56
2024-03-09T23:27:46.625Z,-1.64
2024-03-09T23:30:17.211Z,-1.71
2024-03-09T23:32:49.968Z,-1.81
2024-03-09T23:35:19.589Z,-1.20
2024-03-09T23:37:50.159Z,-0.11
2024-03-09T23:40:21.562Z,0.26
2024-03-09T23:42:49.627Z,0.23
2024-03-09T23:45:17.693Z,0.09
2024-03-09T23:47:46.501Z,-0.20
2024-03-09T23:50:14.781Z,-0.40
2024-03-09T23:52:42.770Z,-0.49
2024-03-09T23:55:11.587Z,-0.70
2024-03-09T23:57:40.910Z,-0.91
